sensor_id;sensor_type;location;lat;lon;timestamp;temperature;humidity
38480;DHT22;62333;51.980;5.934;2022-12-07T00:01:12;7.60;91.40
38480;DHT22;62333;51.980;5.934;2022-12-07T00:03:39;7.60;91.30
38480;DHT22;62333;51.980;5.934;2022-12-07T00:06:06;7.60;91.30
38480;DHT22;62333;51.980;5.934;2022-12-07T00:08:32;7.60;91.30
38480;DHT22;62333;51.980;5.934;2022-12-07T00:11:23;7.60;91.30
38480;DHT22;62333;51.980;5.934;2022-12-07T00:13:57;7.60;91.30
38480;DHT22;62333;51.980;5.934;2022-12-07T00:16:25;7.60;91.30
38480;DHT22;62333;51.980;5.934;2022-12-07T00:18:51;7.60;91.20
38480;DHT22;62333;51.980;5.934;2022-12-07T00:21:25;7.60;91.20
38480;DHT22;62333;51.980;5.934;2022-12-07T00:23:53;7.50;91.20
38480;DHT22;62333;51.980;5.934;2022-12-07T00:26:30;7.50;91.20
38480;DHT22;62333;51.980;5.934;2022-12-07T00:28:58;7.50;91.20
38480;DHT22;62333;51.980;5.934;2022-12-07T00:31:32;7.50;91.20
38480;DHT22;62333;51.980;5.934;2022-12-07T00:34:04;7.50;91.20
38480;DHT22;62333;51.980;5.934;2022-12-07T00:36:30;7.40;91.10
38480;DHT22;62333;51.980;5.934;2022-12-07T00:38:58;7.40;91.10
38480;DHT22;62333;51.980;5.934;2022-12-07T00:41:25;7.40;91.10
38480;DHT22;62333;51.980;5.934;2022-12-07T00:43:51;7.30;91.10
38480;DHT22;62333;51.980;5.934;2022-12-07T00:46:18;7.30;91.10
38480;DHT22;62333;51.980;5.934;2022-12-07T00:48:44;7.30;91.10
38480;DHT22;62333;51.980;5.934;2022-12-07T00:51:12;7.30;91.10
38480;DHT22;62333;51.980;5.934;2022-12-07T00:53:38;7.20;91.00
38480;DHT22;62333;51.980;5.934;2022-12-07T00:56:08;7.20;91.00
38480;DHT22;62333;51.980;5.934;2022-12-07T00:58:34;7.20;91.00
38480;DHT22;62333;51.980;5.934;2022-12-07T01:01:01;7.20;91.00
38480;DHT22;62333;51.980;5.934;2022-12-07T01:03:28;7.20;91.00
38480;DHT22;62333;51.980;5.934;2022-12-07T01:05:54;7.20;91.00
38480;DHT22;62333;51.980;5.934;2022-12-07T01:08:21;7.10;91.00
38480;DHT22;62333;51.980;5.934;2022-12-07T01:10:47;7.00;91.00
38480;DHT22;62333;51.980;5.934;2022-12-07T01:13:13;7.00;91.00
38480;DHT22;62333;51.980;5.934;2022-12-07T01:15:41;7.00;91.00
38480;DHT22;62333;51.980;5.934;2022-12-07T01:18:07;7.00;91.00
38480;DHT22;62333;51.980;5.934;2022-12-07T01:20:32;7.00;91.00
38480;DHT22;62333;51.980;5.934;2022-12-07T01:22:58;6.90;91.00
38480;DHT22;62333;51.980;5.934;2022-12-07T01:25:23;6.90;91.00
38480;DHT22;62333;51.980;5.934;2022-12-07T01:27:49;6.80;90.90
38480;DHT22;62333;51.980;5.934;2022-12-07T01:30:15;6.80;90.90
38480;DHT22;62333;51.980;5.934;2022-12-07T01:32:40;6.80;91.00
38480;DHT22;62333;51.980;5.934;2022-12-07T01:35:06;6.80;91.00
38480;DHT22;62333;51.980;5.934;2022-12-07T01:37:39;6.80;91.00
38480;DHT22;62333;51.980;5.934;2022-12-07T01:40:06;6.80;91.00
38480;DHT22;62333;51.980;5.934;2022-12-07T01:42:33;6.70;90.90
38480;DHT22;62333;51.980;5.934;2022-12-07T01:45:37;6.70;90.90
38480;DHT22;62333;51.980;5.934;2022-12-07T01:48:04;6.70;90.90
38480;DHT22;62333;51.980;5.934;2022-12-07T01:50:31;6.70;90.90
38480;DHT22;62333;51.980;5.934;2022-12-07T01:52:59;6.70;90.90
38480;DHT22;62333;51.980;5.934;2022-12-07T01:55:27;6.70;90.90
38480;DHT22;62333;51.980;5.934;2022-12-07T01:57:53;6.70;91.00
38480;DHT22;62333;51.980;5.934;2022-12-07T02:00:20;6.60;90.90
38480;DHT22;62333;51.980;5.934;2022-12-07T02:02:53;6.60;91.00
38480;DHT22;62333;51.980;5.934;2022-12-07T02:05:19;6.50;90.90
38480;DHT22;62333;51.980;5.934;2022-12-07T02:07:47;6.50;90.90
38480;DHT22;62333;51.980;5.934;2022-12-07T02:10:18;6.50;90.90
38480;DHT22;62333;51.980;5.934;2022-12-07T02:12:57;6.40;90.90
38480;DHT22;62333;51.980;5.934;2022-12-07T02:15:33;6.40;90.90
38480;DHT22;62333;51.980;5.934;2022-12-07T02:18:07;6.40;91.00
38480;DHT22;62333;51.980;5.934;2022-12-07T02:20:58;6.40;91.00
38480;DHT22;62333;51.980;5.934;2022-12-07T02:23:41;6.30;91.00
38480;DHT22;62333;51.980;5.934;2022-12-07T02:31:17;6.30;91.00
38480;DHT22;62333;51.980;5.934;2022-12-07T02:33:50;6.30;91.10
38480;DHT22;62333;51.980;5.934;2022-12-07T02:36:26;6.30;91.10
38480;DHT22;62333;51.980;5.934;2022-12-07T02:39:04;6.30;91.10
38480;DHT22;62333;51.980;5.934;2022-12-07T02:41:35;6.20;91.10
38480;DHT22;62333;51.980;5.934;2022-12-07T02:44:05;6.20;91.10
38480;DHT22;62333;51.980;5.934;2022-12-07T02:46:38;6.20;91.10
38480;DHT22;62333;51.980;5.934;2022-12-07T02:49:05;6.20;91.10
38480;DHT22;62333;51.980;5.934;2022-12-07T02:51:33;6.20;91.10
38480;DHT22;62333;51.980;5.934;2022-12-07T02:53:59;6.20;91.10
38480;DHT22;62333;51.980;5.934;2022-12-07T02:59:30;6.20;91.20
38480;DHT22;62333;51.980;5.934;2022-12-07T03:08:01;6.20;91.10
38480;DHT22;62333;51.980;5.934;2022-12-07T03:15:58;6.20;91.20
38480;DHT22;62333;51.980;5.934;2022-12-07T03:18:29;6.20;91.20
38480;DHT22;62333;51.980;5.934;2022-12-07T03:21:08;6.20;91.20
38480;DHT22;62333;51.980;5.934;2022-12-07T03:23:37;6.20;91.20
38480;DHT22;62333;51.980;5.934;2022-12-07T03:26:04;6.30;91.30
38480;DHT22;62333;51.980;5.934;2022-12-07T03:28:36;6.30;91.30
38480;DHT22;62333;51.980;5.934;2022-12-07T03:34:10;6.30;91.30
38480;DHT22;62333;51.980;5.934;2022-12-07T03:36:43;6.30;91.30
38480;DHT22;62333;51.980;5.934;2022-12-07T03:39:23;6.30;91.30
38480;DHT22;62333;51.980;5.934;2022-12-07T03:41:51;6.30;91.30
38480;DHT22;62333;51.980;5.934;2022-12-07T03:44:18;6.30;91.30
38480;DHT22;62333;51.980;5.934;2022-12-07T03:51:51;6.40;91.30
38480;DHT22;62333;51.980;5.934;2022-12-07T03:56:49;6.40;91.30
38480;DHT22;62333;51.980;5.934;2022-12-07T03:59:17;6.50;91.30
38480;DHT22;62333;51.980;5.934;2022-12-07T04:01:44;6.50;91.30
38480;DHT22;62333;51.980;5.934;2022-12-07T04:04:10;6.50;91.30
38480;DHT22;62333;51.980;5.934;2022-12-07T04:06:36;6.50;91.30
38480;DHT22;62333;51.980;5.934;2022-12-07T04:09:02;6.50;91.30
38480;DHT22;62333;51.980;5.934;2022-12-07T04:11:28;6.50;91.20
38480;DHT22;62333;51.980;5.934;2022-12-07T04:13:54;6.50;91.20
38480;DHT22;62333;51.980;5.934;2022-12-07T04:16:37;6.60;91.20
38480;DHT22;62333;51.980;5.934;2022-12-07T04:19:03;6.50;91.20
38480;DHT22;62333;51.980;5.934;2022-12-07T04:21:29;6.60;91.20
38480;DHT22;62333;51.980;5.934;2022-12-07T04:23:54;6.60;91.20
38480;DHT22;62333;51.980;5.934;2022-12-07T04:26:20;6.50;91.20
38480;DHT22;62333;51.980;5.934;2022-12-07T04:28:45;6.60;91.20
38480;DHT22;62333;51.980;5.934;2022-12-07T04:31:11;6.60;91.20
38480;DHT22;62333;51.980;5.934;2022-12-07T04:33:37;6.50;91.20
38480;DHT22;62333;51.980;5.934;2022-12-07T04:36:02;6.50;91.10
38480;DHT22;62333;51.980;5.934;2022-12-07T04:38:28;6.50;91.10
38480;DHT22;62333;51.980;5.934;2022-12-07T04:40:54;6.50;91.10
38480;DHT22;62333;51.980;5.934;2022-12-07T04:43:19;6.50;91.10
38480;DHT22;62333;51.980;5.934;2022-12-07T04:45:46;6.50;91.10
38480;DHT22;62333;51.980;5.934;2022-12-07T04:48:12;6.40;91.10
38480;DHT22;62333;51.980;5.934;2022-12-07T04:50:38;6.50;91.10
38480;DHT22;62333;51.980;5.934;2022-12-07T04:53:04;6.50;91.10
38480;DHT22;62333;51.980;5.934;2022-12-07T04:55:29;6.40;91.10
38480;DHT22;62333;51.980;5.934;2022-12-07T04:57:55;6.40;91.10
38480;DHT22;62333;51.980;5.934;2022-12-07T05:00:21;6.40;91.10
38480;DHT22;62333;51.980;5.934;2022-12-07T05:02:46;6.40;91.10
38480;DHT22;62333;51.980;5.934;2022-12-07T05:05:12;6.40;91.20
38480;DHT22;62333;51.980;5.934;2022-12-07T05:07:37;6.40;91.20
38480;DHT22;62333;51.980;5.934;2022-12-07T05:10:04;6.40;91.10
38480;DHT22;62333;51.980;5.934;2022-12-07T05:12:30;6.40;91.10
38480;DHT22;62333;51.980;5.934;2022-12-07T05:14:55;6.40;91.20
38480;DHT22;62333;51.980;5.934;2022-12-07T05:17:21;6.30;91.10
38480;DHT22;62333;51.980;5.934;2022-12-07T05:19:46;6.30;91.10
38480;DHT22;62333;51.980;5.934;2022-12-07T05:22:12;6.30;91.10
38480;DHT22;62333;51.980;5.934;2022-12-07T05:24:38;6.30;91.10
38480;DHT22;62333;51.980;5.934;2022-12-07T05:27:04;6.30;91.10
38480;DHT22;62333;51.980;5.934;2022-12-07T05:29:30;6.30;91.10
38480;DHT22;62333;51.980;5.934;2022-12-07T05:31:55;6.20;91.10
38480;DHT22;62333;51.980;5.934;2022-12-07T05:34:21;6.20;91.00
38480;DHT22;62333;51.980;5.934;2022-12-07T05:36:46;6.20;91.10
38480;DHT22;62333;51.980;5.934;2022-12-07T05:39:12;6.10;91.00
38480;DHT22;62333;51.980;5.934;2022-12-07T05:41:38;6.10;91.10
38480;DHT22;62333;51.980;5.934;2022-12-07T05:44:22;6.10;91.10
38480;DHT22;62333;51.980;5.934;2022-12-07T05:46:48;6.00;91.10
38480;DHT22;62333;51.980;5.934;2022-12-07T05:49:13;6.00;91.10
38480;DHT22;62333;51.980;5.934;2022-12-07T05:51:39;6.00;91.10
38480;DHT22;62333;51.980;5.934;2022-12-07T05:54:05;6.00;91.20
38480;DHT22;62333;51.980;5.934;2022-12-07T05:56:30;6.00;91.10
38480;DHT22;62333;51.980;5.934;2022-12-07T05:58:56;6.00;91.20
38480;DHT22;62333;51.980;5.934;2022-12-07T06:01:40;6.00;91.20
38480;DHT22;62333;51.980;5.934;2022-12-07T06:04:06;5.90;91.10
38480;DHT22;62333;51.980;5.934;2022-12-07T06:06:32;5.90;91.20
38480;DHT22;62333;51.980;5.934;2022-12-07T06:08:57;5.90;91.20
38480;DHT22;62333;51.980;5.934;2022-12-07T06:11:23;5.90;91.20
38480;DHT22;62333;51.980;5.934;2022-12-07T06:14:07;5.90;91.20
38480;DHT22;62333;51.980;5.934;2022-12-07T06:16:33;5.80;91.20
38480;DHT22;62333;51.980;5.934;2022-12-07T06:18:59;5.80;91.20
38480;DHT22;62333;51.980;5.934;2022-12-07T06:21:25;5.80;91.20
38480;DHT22;62333;51.980;5.934;2022-12-07T06:23:52;5.80;91.20
38480;DHT22;62333;51.980;5.934;2022-12-07T06:26:17;5.70;91.20
38480;DHT22;62333;51.980;5.934;2022-12-07T06:28:43;5.70;91.20
38480;DHT22;62333;51.980;5.934;2022-12-07T06:31:09;5.70;91.20
38480;DHT22;62333;51.980;5.934;2022-12-07T06:33:35;5.70;91.20
38480;DHT22;62333;51.980;5.934;2022-12-07T06:36:01;5.60;91.20
38480;DHT22;62333;51.980;5.934;2022-12-07T06:38:26;5.60;91.30
38480;DHT22;62333;51.980;5.934;2022-12-07T06:40:52;5.60;91.30
38480;DHT22;62333;51.980;5.934;2022-12-07T06:43:17;5.60;91.30
38480;DHT22;62333;51.980;5.934;2022-12-07T06:45:43;5.60;91.30
38480;DHT22;62333;51.980;5.934;2022-12-07T06:48:09;5.60;91.30
38480;DHT22;62333;51.980;5.934;2022-12-07T06:50:34;5.60;91.30
38480;DHT22;62333;51.980;5.934;2022-12-07T06:53:00;5.60;91.30
38480;DHT22;62333;51.980;5.934;2022-12-07T06:55:26;5.60;91.30
38480;DHT22;62333;51.980;5.934;2022-12-07T06:57:51;5.50;91.30
38480;DHT22;62333;51.980;5.934;2022-12-07T07:00:17;5.60;91.30
38480;DHT22;62333;51.980;5.934;2022-12-07T07:02:43;5.60;91.30
38480;DHT22;62333;51.980;5.934;2022-12-07T07:05:08;5.60;91.40
38480;DHT22;62333;51.980;5.934;2022-12-07T07:07:34;5.60;91.40
38480;DHT22;62333;51.980;5.934;2022-12-07T07:10:00;5.60;91.40
38480;DHT22;62333;51.980;5.934;2022-12-07T07:12:25;5.60;91.40
38480;DHT22;62333;51.980;5.934;2022-12-07T07:14:51;5.60;91.40
38480;DHT22;62333;51.980;5.934;2022-12-07T07:17:17;5.60;91.40
38480;DHT22;62333;51.980;5.934;2022-12-07T07:19:42;5.60;91.40
38480;DHT22;62333;51.980;5.934;2022-12-07T07:22:08;5.60;91.40
38480;DHT22;62333;51.980;5.934;2022-12-07T07:24:33;5.60;91.40
38480;DHT22;62333;51.980;5.934;2022-12-07T07:27:02;5.60;91.40
38480;DHT22;62333;51.980;5.934;2022-12-07T07:29:27;5.60;91.40
38480;DHT22;62333;51.980;5.934;2022-12-07T07:31:53;5.60;91.40
38480;DHT22;62333;51.980;5.934;2022-12-07T07:34:18;5.60;91.70
38480;DHT22;62333;51.980;5.934;2022-12-07T07:36:44;5.60;91.40
38480;DHT22;62333;51.980;5.934;2022-12-07T07:39:10;5.60;91.40
38480;DHT22;62333;51.980;5.934;2022-12-07T07:41:38;5.60;91.40
38480;DHT22;62333;51.980;5.934;2022-12-07T07:44:03;5.60;91.40
38480;DHT22;62333;51.980;5.934;2022-12-07T07:46:29;5.60;91.40
38480;DHT22;62333;51.980;5.934;2022-12-07T07:48:55;5.60;91.70
38480;DHT22;62333;51.980;5.934;2022-12-07T07:51:21;5.60;91.40
38480;DHT22;62333;51.980;5.934;2022-12-07T07:53:46;5.60;91.40
38480;DHT22;62333;51.980;5.934;2022-12-07T07:56:12;5.60;91.40
38480;DHT22;62333;51.980;5.934;2022-12-07T07:58:38;5.60;91.40
38480;DHT22;62333;51.980;5.934;2022-12-07T08:01:05;5.60;91.40
38480;DHT22;62333;51.980;5.934;2022-12-07T08:03:31;5.60;91.70
38480;DHT22;62333;51.980;5.934;2022-12-07T08:05:57;5.60;91.40
38480;DHT22;62333;51.980;5.934;2022-12-07T08:08:22;5.60;91.40
38480;DHT22;62333;51.980;5.934;2022-12-07T08:10:48;5.60;91.40
38480;DHT22;62333;51.980;5.934;2022-12-07T08:13:16;5.60;91.40
38480;DHT22;62333;51.980;5.934;2022-12-07T08:15:46;5.60;91.40
38480;DHT22;62333;51.980;5.934;2022-12-07T08:18:13;5.60;91.40
38480;DHT22;62333;51.980;5.934;2022-12-07T08:20:41;5.70;91.50
38480;DHT22;62333;51.980;5.934;2022-12-07T08:23:08;5.70;91.50
38480;DHT22;62333;51.980;5.934;2022-12-07T08:25:34;5.70;91.50
38480;DHT22;62333;51.980;5.934;2022-12-07T08:28:00;5.90;91.60
38480;DHT22;62333;51.980;5.934;2022-12-07T08:30:27;5.90;91.60
38480;DHT22;62333;51.980;5.934;2022-12-07T08:32:53;6.00;91.60
38480;DHT22;62333;51.980;5.934;2022-12-07T08:35:18;6.10;91.60
38480;DHT22;62333;51.980;5.934;2022-12-07T08:37:44;6.20;91.60
38480;DHT22;62333;51.980;5.934;2022-12-07T08:40:11;6.20;91.60
38480;DHT22;62333;51.980;5.934;2022-12-07T08:42:43;6.20;91.60
38480;DHT22;62333;51.980;5.934;2022-12-07T08:45:12;6.30;91.60
38480;DHT22;62333;51.980;5.934;2022-12-07T08:47:42;6.30;91.60
38480;DHT22;62333;51.980;5.934;2022-12-07T08:50:10;6.40;91.60
38480;DHT22;62333;51.980;5.934;2022-12-07T08:52:37;6.40;91.60
38480;DHT22;62333;51.980;5.934;2022-12-07T08:55:04;6.40;91.60
38480;DHT22;62333;51.980;5.934;2022-12-07T08:57:32;6.50;91.60
38480;DHT22;62333;51.980;5.934;2022-12-07T08:59:59;6.50;91.50
38480;DHT22;62333;51.980;5.934;2022-12-07T09:02:24;6.50;91.50
38480;DHT22;62333;51.980;5.934;2022-12-07T09:04:50;6.50;91.50
38480;DHT22;62333;51.980;5.934;2022-12-07T09:07:16;6.60;91.50
38480;DHT22;62333;51.980;5.934;2022-12-07T09:09:41;6.60;91.50
38480;DHT22;62333;51.980;5.934;2022-12-07T09:12:07;6.60;91.50
38480;DHT22;62333;51.980;5.934;2022-12-07T09:14:33;6.80;91.60
38480;DHT22;62333;51.980;5.934;2022-12-07T09:17:11;6.90;91.60
38480;DHT22;62333;51.980;5.934;2022-12-07T09:19:37;7.10;91.70
38480;DHT22;62333;51.980;5.934;2022-12-07T09:22:04;7.20;91.60
38480;DHT22;62333;51.980;5.934;2022-12-07T09:24:30;7.30;91.50
38480;DHT22;62333;51.980;5.934;2022-12-07T09:26:57;7.40;91.30
38480;DHT22;62333;51.980;5.934;2022-12-07T09:29:23;7.50;91.00
38480;DHT22;62333;51.980;5.934;2022-12-07T09:31:49;7.50;90.80
38480;DHT22;62333;51.980;5.934;2022-12-07T09:34:14;7.50;90.70
38480;DHT22;62333;51.980;5.934;2022-12-07T09:36:40;7.60;90.70
38480;DHT22;62333;51.980;5.934;2022-12-07T09:39:07;7.70;90.60
38480;DHT22;62333;51.980;5.934;2022-12-07T09:41:33;7.80;90.60
38480;DHT22;62333;51.980;5.934;2022-12-07T09:44:09;8.00;90.60
38480;DHT22;62333;51.980;5.934;2022-12-07T09:46:39;8.10;90.50
38480;DHT22;62333;51.980;5.934;2022-12-07T09:49:14;8.30;90.40
38480;DHT22;62333;51.980;5.934;2022-12-07T09:51:41;8.40;90.30
38480;DHT22;62333;51.980;5.934;2022-12-07T09:54:11;8.60;90.40
38480;DHT22;62333;51.980;5.934;2022-12-07T09:56:37;8.80;90.00
38480;DHT22;62333;51.980;5.934;2022-12-07T09:59:03;9.00;89.30
38480;DHT22;62333;51.980;5.934;2022-12-07T10:01:31;9.20;88.70
38480;DHT22;62333;51.980;5.934;2022-12-07T10:06:36;9.50;87.80
38480;DHT22;62333;51.980;5.934;2022-12-07T10:09:01;9.60;87.30
38480;DHT22;62333;51.980;5.934;2022-12-07T10:11:28;9.70;86.70
38480;DHT22;62333;51.980;5.934;2022-12-07T10:13:53;9.90;86.00
38480;DHT22;62333;51.980;5.934;2022-12-07T10:18:52;10.20;85.20
38480;DHT22;62333;51.980;5.934;2022-12-07T10:24:05;10.40;83.80
38480;DHT22;62333;51.980;5.934;2022-12-07T10:31:55;10.60;82.50
38480;DHT22;62333;51.980;5.934;2022-12-07T10:34:23;10.60;82.40
38480;DHT22;62333;51.980;5.934;2022-12-07T10:36:50;10.60;82.20
38480;DHT22;62333;51.980;5.934;2022-12-07T10:39:22;10.60;81.80
38480;DHT22;62333;51.980;5.934;2022-12-07T10:42:03;10.60;81.60
38480;DHT22;62333;51.980;5.934;2022-12-07T10:44:31;10.60;81.20
38480;DHT22;62333;51.980;5.934;2022-12-07T10:52:22;10.80;80.40
38480;DHT22;62333;51.980;5.934;2022-12-07T10:55:25;10.90;79.80
38480;DHT22;62333;51.980;5.934;2022-12-07T10:58:47;11.10;79.70
38480;DHT22;62333;51.980;5.934;2022-12-07T11:01:00;11.20;79.20
38480;DHT22;62333;51.980;5.934;2022-12-07T11:06:39;11.30;78.20
38480;DHT22;62333;51.980;5.934;2022-12-07T11:12:20;11.30;78.20
38480;DHT22;62333;51.980;5.934;2022-12-07T11:15:17;11.20;78.00
38480;DHT22;62333;51.980;5.934;2022-12-07T11:20:21;11.10;78.40
38480;DHT22;62333;51.980;5.934;2022-12-07T11:25:32;11.00;78.50
38480;DHT22;62333;51.980;5.934;2022-12-07T11:28:07;10.90;78.00
38480;DHT22;62333;51.980;5.934;2022-12-07T11:31:26;10.90;78.00
38480;DHT22;62333;51.980;5.934;2022-12-07T11:36:41;10.90;78.30
38480;DHT22;62333;51.980;5.934;2022-12-07T11:41:38;11.00;78.20
38480;DHT22;62333;51.980;5.934;2022-12-07T11:47:10;11.20;78.30
38480;DHT22;62333;51.980;5.934;2022-12-07T11:50:34;11.40;78.00
38480;DHT22;62333;51.980;5.934;2022-12-07T11:55:24;11.70;77.70
38480;DHT22;62333;51.980;5.934;2022-12-07T11:57:58;11.80;76.90
38480;DHT22;62333;51.980;5.934;2022-12-07T12:00:25;11.90;76.30
38480;DHT22;62333;51.980;5.934;2022-12-07T12:05:25;12.10;75.50
38480;DHT22;62333;51.980;5.934;2022-12-07T12:08:04;12.20;75.50
38480;DHT22;62333;51.980;5.934;2022-12-07T12:18:48;11.80;74.40
38480;DHT22;62333;51.980;5.934;2022-12-07T12:21:17;11.70;74.10
38480;DHT22;62333;51.980;5.934;2022-12-07T12:23:51;11.50;74.10
38480;DHT22;62333;51.980;5.934;2022-12-07T12:26:22;11.40;74.30
38480;DHT22;62333;51.980;5.934;2022-12-07T12:28:55;11.40;74.60
38480;DHT22;62333;51.980;5.934;2022-12-07T12:33:52;11.30;74.90
38480;DHT22;62333;51.980;5.934;2022-12-07T12:55:00;11.50;74.60
38480;DHT22;62333;51.980;5.934;2022-12-07T12:57:30;11.60;74.00
38480;DHT22;62333;51.980;5.934;2022-12-07T13:00:02;11.70;74.30
38480;DHT22;62333;51.980;5.934;2022-12-07T13:02:53;11.80;74.20
38480;DHT22;62333;51.980;5.934;2022-12-07T13:05:28;11.80;74.10
38480;DHT22;62333;51.980;5.934;2022-12-07T13:07:57;11.80;73.50
38480;DHT22;62333;51.980;5.934;2022-12-07T13:15:48;11.80;73.00
38480;DHT22;62333;51.980;5.934;2022-12-07T13:20:59;11.80;72.80
38480;DHT22;62333;51.980;5.934;2022-12-07T13:26:13;11.70;72.80
38480;DHT22;62333;51.980;5.934;2022-12-07T13:28:48;11.70;72.90
38480;DHT22;62333;51.980;5.934;2022-12-07T13:31:38;11.60;73.00
38480;DHT22;62333;51.980;5.934;2022-12-07T13:34:27;11.70;73.40
38480;DHT22;62333;51.980;5.934;2022-12-07T13:36:51;11.60;73.10
38480;DHT22;62333;51.980;5.934;2022-12-07T13:41:48;11.60;73.20
38480;DHT22;62333;51.980;5.934;2022-12-07T13:44:15;11.50;73.30
38480;DHT22;62333;51.980;5.934;2022-12-07T13:47:11;11.50;73.20
38480;DHT22;62333;51.980;5.934;2022-12-07T13:49:46;11.40;73.30
38480;DHT22;62333;51.980;5.934;2022-12-07T13:57:22;11.20;73.80
38480;DHT22;62333;51.980;5.934;2022-12-07T13:59:49;11.20;74.00
38480;DHT22;62333;51.980;5.934;2022-12-07T14:02:26;11.20;74.10
38480;DHT22;62333;51.980;5.934;2022-12-07T14:05:05;11.10;74.10
38480;DHT22;62333;51.980;5.934;2022-12-07T14:07:33;11.10;74.20
38480;DHT22;62333;51.980;5.934;2022-12-07T14:10:00;11.10;74.40
38480;DHT22;62333;51.980;5.934;2022-12-07T14:12:28;11.10;74.50
38480;DHT22;62333;51.980;5.934;2022-12-07T14:14:55;11.00;74.70
38480;DHT22;62333;51.980;5.934;2022-12-07T14:17:24;11.00;75.00
38480;DHT22;62333;51.980;5.934;2022-12-07T14:22:31;10.90;75.60
38480;DHT22;62333;51.980;5.934;2022-12-07T14:27:33;10.70;75.80
38480;DHT22;62333;51.980;5.934;2022-12-07T14:30:00;10.60;75.50
38480;DHT22;62333;51.980;5.934;2022-12-07T14:32:28;10.50;75.50
38480;DHT22;62333;51.980;5.934;2022-12-07T14:34:55;10.40;75.40
38480;DHT22;62333;51.980;5.934;2022-12-07T14:37:21;10.30;75.50
38480;DHT22;62333;51.980;5.934;2022-12-07T14:39:47;10.30;75.70
38480;DHT22;62333;51.980;5.934;2022-12-07T14:42:13;10.20;75.80
38480;DHT22;62333;51.980;5.934;2022-12-07T14:44:39;10.10;75.90
38480;DHT22;62333;51.980;5.934;2022-12-07T14:47:04;10.00;76.10
38480;DHT22;62333;51.980;5.934;2022-12-07T14:49:30;9.90;76.30
38480;DHT22;62333;51.980;5.934;2022-12-07T14:51:55;9.90;76.50
38480;DHT22;62333;51.980;5.934;2022-12-07T14:54:24;9.80;76.60
38480;DHT22;62333;51.980;5.934;2022-12-07T14:56:51;9.80;76.80
38480;DHT22;62333;51.980;5.934;2022-12-07T14:59:17;9.70;76.90
38480;DHT22;62333;51.980;5.934;2022-12-07T15:01:44;9.70;77.40
38480;DHT22;62333;51.980;5.934;2022-12-07T15:04:09;9.60;77.30
38480;DHT22;62333;51.980;5.934;2022-12-07T15:06:35;9.60;77.50
38480;DHT22;62333;51.980;5.934;2022-12-07T15:09:02;9.50;77.90
38480;DHT22;62333;51.980;5.934;2022-12-07T15:11:27;9.50;78.10
38480;DHT22;62333;51.980;5.934;2022-12-07T15:13:53;9.50;78.40
38480;DHT22;62333;51.980;5.934;2022-12-07T15:16:36;9.50;78.70
38480;DHT22;62333;51.980;5.934;2022-12-07T15:19:02;9.50;78.90
38480;DHT22;62333;51.980;5.934;2022-12-07T15:21:28;9.40;79.20
38480;DHT22;62333;51.980;5.934;2022-12-07T15:23:53;9.40;79.40
38480;DHT22;62333;51.980;5.934;2022-12-07T15:26:19;9.40;79.60
38480;DHT22;62333;51.980;5.934;2022-12-07T15:28:45;9.40;79.80
38480;DHT22;62333;51.980;5.934;2022-12-07T15:31:15;9.40;79.90
38480;DHT22;62333;51.980;5.934;2022-12-07T15:33:42;9.40;80.00
38480;DHT22;62333;51.980;5.934;2022-12-07T15:36:08;9.40;80.20
38480;DHT22;62333;51.980;5.934;2022-12-07T15:38:34;9.30;80.20
38480;DHT22;62333;51.980;5.934;2022-12-07T15:41:00;9.30;80.90
38480;DHT22;62333;51.980;5.934;2022-12-07T15:43:26;9.30;80.40
38480;DHT22;62333;51.980;5.934;2022-12-07T15:46:09;9.30;80.40
38480;DHT22;62333;51.980;5.934;2022-12-07T15:48:35;9.20;80.50
38480;DHT22;62333;51.980;5.934;2022-12-07T15:51:05;9.20;80.60
38480;DHT22;62333;51.980;5.934;2022-12-07T15:53:31;9.10;80.70
38480;DHT22;62333;51.980;5.934;2022-12-07T15:55:57;9.10;80.80
38480;DHT22;62333;51.980;5.934;2022-12-07T15:58:22;9.10;80.80
38480;DHT22;62333;51.980;5.934;2022-12-07T16:00:48;9.10;80.80
38480;DHT22;62333;51.980;5.934;2022-12-07T16:03:14;9.00;80.90
38480;DHT22;62333;51.980;5.934;2022-12-07T16:05:40;9.00;81.00
38480;DHT22;62333;51.980;5.934;2022-12-07T16:08:06;9.00;81.00
38480;DHT22;62333;51.980;5.934;2022-12-07T16:10:32;9.00;81.10
38480;DHT22;62333;51.980;5.934;2022-12-07T16:12:58;8.90;81.10
38480;DHT22;62333;51.980;5.934;2022-12-07T16:15:23;9.00;81.30
38480;DHT22;62333;51.980;5.934;2022-12-07T16:17:51;8.90;81.30
38480;DHT22;62333;51.980;5.934;2022-12-07T16:20:17;8.90;81.40
38480;DHT22;62333;51.980;5.934;2022-12-07T16:22:43;8.90;81.50
38480;DHT22;62333;51.980;5.934;2022-12-07T16:25:08;8.90;81.60
38480;DHT22;62333;51.980;5.934;2022-12-07T16:27:34;8.80;81.60
38480;DHT22;62333;51.980;5.934;2022-12-07T16:30:00;8.80;81.70
38480;DHT22;62333;51.980;5.934;2022-12-07T16:32:26;8.80;81.70
38480;DHT22;62333;51.980;5.934;2022-12-07T16:34:51;8.80;81.70
38480;DHT22;62333;51.980;5.934;2022-12-07T16:37:17;8.80;82.10
38480;DHT22;62333;51.980;5.934;2022-12-07T16:39:42;8.70;82.50
38480;DHT22;62333;51.980;5.934;2022-12-07T16:42:08;8.70;81.90
38480;DHT22;62333;51.980;5.934;2022-12-07T16:44:34;8.70;81.90
38480;DHT22;62333;51.980;5.934;2022-12-07T16:47:00;8.70;82.00
38480;DHT22;62333;51.980;5.934;2022-12-07T16:49:26;8.70;82.10
38480;DHT22;62333;51.980;5.934;2022-12-07T16:51:52;8.70;82.10
38480;DHT22;62333;51.980;5.934;2022-12-07T16:54:18;8.70;82.10
38480;DHT22;62333;51.980;5.934;2022-12-07T16:56:43;8.60;82.10
38480;DHT22;62333;51.980;5.934;2022-12-07T16:59:09;8.60;82.10
38480;DHT22;62333;51.980;5.934;2022-12-07T17:01:35;8.60;82.10
38480;DHT22;62333;51.980;5.934;2022-12-07T17:04:01;8.60;82.20
38480;DHT22;62333;51.980;5.934;2022-12-07T17:06:28;8.60;82.30
38480;DHT22;62333;51.980;5.934;2022-12-07T17:08:54;8.50;82.30
38480;DHT22;62333;51.980;5.934;2022-12-07T17:11:26;8.50;82.30
38480;DHT22;62333;51.980;5.934;2022-12-07T17:13:52;8.50;82.30
38480;DHT22;62333;51.980;5.934;2022-12-07T17:16:37;8.50;82.30
38480;DHT22;62333;51.980;5.934;2022-12-07T17:19:10;8.50;82.30
38480;DHT22;62333;51.980;5.934;2022-12-07T17:21:37;8.50;82.30
38480;DHT22;62333;51.980;5.934;2022-12-07T17:24:05;8.40;82.30
38480;DHT22;62333;51.980;5.934;2022-12-07T17:26:31;8.40;82.30
38480;DHT22;62333;51.980;5.934;2022-12-07T17:28:58;8.40;82.30
38480;DHT22;62333;51.980;5.934;2022-12-07T17:31:24;8.40;82.40
38480;DHT22;62333;51.980;5.934;2022-12-07T17:33:50;8.30;82.30
38480;DHT22;62333;51.980;5.934;2022-12-07T17:36:21;8.30;82.30
38480;DHT22;62333;51.980;5.934;2022-12-07T17:38:47;8.30;82.40
38480;DHT22;62333;51.980;5.934;2022-12-07T17:41:16;8.20;82.50
38480;DHT22;62333;51.980;5.934;2022-12-07T17:44:01;8.20;82.60
38480;DHT22;62333;51.980;5.934;2022-12-07T17:46:27;8.20;82.70
38480;DHT22;62333;51.980;5.934;2022-12-07T17:48:54;8.20;82.80
38480;DHT22;62333;51.980;5.934;2022-12-07T17:51:20;8.10;82.80
38480;DHT22;62333;51.980;5.934;2022-12-07T17:54:05;8.10;82.80
38480;DHT22;62333;51.980;5.934;2022-12-07T17:56:30;8.10;82.80
38480;DHT22;62333;51.980;5.934;2022-12-07T17:58:56;8.10;82.90